createdAt,value
2019-02-15T17:41:35.786Z,9.35
2019-02-15T17:44:03.467Z,9.14
2019-02-15T17:46:30.874Z,9.33
2019-02-15T17:49:00.714Z,9.00
2019-02-15T17:51:28.213Z,8.88
2019-02-15T17:53:55.779Z,8.86
2019-02-15T17:56:23.514Z,8.70
2019-02-15T17:58:51.079Z,8.66
2019-02-15T18:01:19.438Z,8.59
2019-02-15T18:03:46.612Z,8.38
2019-02-15T18:06:14.007Z,8.37
2019-02-15T18:08:41.534Z,8.22
2019-02-15T18:11:09.086Z,8.20
2019-02-15T18:13:37.734Z,8.08
2019-02-15T18:16:05.692Z,8.16
2019-02-15T18:18:33.489Z,7.94
2019-02-15T18:21:01.018Z,7.91
2019-02-15T18:23:28.805Z,7.91
2019-02-15T18:25:56.354Z,7.71
2019-02-15T18:28:23.714Z,7.57
2019-02-15T18:30:51.450Z,7.59
2019-02-15T18:33:19.441Z,7.55
2019-02-15T18:35:47.207Z,7.16
2019-02-15T18:38:14.965Z,7.19
2019-02-15T18:40:42.535Z,7.25
2019-02-15T18:43:10.360Z,7.10
2019-02-15T18:45:38.070Z,6.87
2019-02-15T18:48:05.772Z,7.01
2019-02-15T18:50:33.544Z,6.94
2019-02-15T18:53:01.280Z,6.85
2019-02-15T18:55:29.158Z,6.91
2019-02-15T18:57:56.766Z,6.96
2019-02-15T19:00:24.911Z,6.89
2019-02-15T19:02:52.037Z,6.76
2019-02-15T19:05:19.739Z,6.62
2019-02-15T19:07:47.082Z,6.63
2019-02-15T19:10:16.530Z,6.67
2019-02-15T19:12:44.088Z,6.79
2019-02-15T19:15:13.270Z,6.48
2019-02-15T19:17:40.646Z,6.50
2019-02-15T19:20:09.399Z,6.53
2019-02-15T19:22:37.061Z,6.43
2019-02-15T19:25:06.162Z,6.23
2019-02-15T19:27:33.762Z,6.12
2019-02-15T19:30:01.427Z,5.83
2019-02-15T19:32:29.227Z,5.78
2019-02-15T19:34:56.705Z,5.73
2019-02-15T19:37:23.990Z,5.67
2019-02-15T19:39:51.785Z,5.56
2019-02-15T19:42:21.200Z,5.42
2019-02-15T19:44:48.524Z,5.30
2019-02-15T19:47:15.706Z,5.32
2019-02-15T19:49:43.536Z,5.23
2019-02-15T19:52:11.036Z,5.12
2019-02-15T19:54:38.283Z,5.11
2019-02-15T19:57:06.199Z,5.06
2019-02-15T19:59:33.883Z,4.92
2019-02-15T20:02:01.165Z,4.97
2019-02-15T20:04:29.106Z,4.88
2019-02-15T20:06:56.387Z,4.76
2019-02-15T20:09:24.173Z,4.66
2019-02-15T20:11:51.309Z,4.64
2019-02-15T20:14:18.809Z,4.50
2019-02-15T20:16:46.075Z,4.40
2019-02-15T20:19:13.657Z,4.35
2019-02-15T20:21:41.247Z,4.43
2019-02-15T20:24:08.347Z,4.57
2019-02-15T20:26:36.233Z,4.38
2019-02-15T20:29:04.347Z,4.38
2019-02-15T20:31:31.634Z,4.34
2019-02-15T20:33:59.338Z,4.46
2019-02-15T20:36:26.944Z,4.41
2019-02-15T20:38:55.189Z,4.42
2019-02-15T20:41:22.659Z,4.26
2019-02-15T20:43:49.954Z,4.27
2019-02-15T20:46:17.677Z,4.33
2019-02-15T20:48:48.661Z,4.21
2019-02-15T20:51:16.921Z,4.12
2019-02-15T20:53:44.397Z,4.05
2019-02-15T20:56:11.786Z,3.95
2019-02-15T20:58:39.196Z,3.81
2019-02-15T21:01:07.027Z,3.80
2019-02-15T21:03:34.331Z,3.56
2019-02-15T21:06:01.993Z,3.44
2019-02-15T21:08:29.527Z,3.37
2019-02-15T21:10:57.074Z,3.24
2019-02-15T21:13:24.786Z,3.24
2019-02-15T21:15:52.933Z,3.28
2019-02-15T21:18:20.671Z,3.22
2019-02-15T21:20:48.488Z,3.04
2019-02-15T21:23:16.106Z,3.12
2019-02-15T21:25:43.573Z,3.01
2019-02-15T21:28:11.406Z,3.00
2019-02-15T21:30:38.710Z,3.10
2019-02-15T21:33:06.543Z,3.03
2019-02-15T21:35:33.916Z,2.93
2019-02-15T21:38:01.917Z,3.00
2019-02-15T21:40:29.320Z,2.86
2019-02-15T21:42:57.125Z,2.90
2019-02-15T21:45:24.835Z,2.77
2019-02-15T21:47:52.746Z,2.72
2019-02-15T21:50:20.240Z,2.59
2019-02-15T21:52:48.119Z,2.60
2019-02-15T21:55:15.571Z,2.52
2019-02-15T21:57:43.075Z,2.54
2019-02-15T22:00:13.134Z,2.40
2019-02-15T22:02:40.483Z,2.39
2019-02-15T22:05:07.977Z,2.51
2019-02-15T22:07:35.897Z,2.39
2019-02-15T22:10:04.153Z,2.35
2019-02-15T22:12:35.823Z,2.36
2019-02-15T22:15:03.665Z,2.37
2019-02-15T22:17:31.363Z,2.14
2019-02-15T22:19:58.764Z,2.14
2019-02-15T22:22:26.140Z,2.09
2019-02-15T22:24:53.587Z,2.00
2019-02-15T22:27:21.188Z,1.88
2019-02-15T22:29:48.627Z,1.77
2019-02-15T22:32:16.576Z,1.83
2019-02-15T22:34:44.606Z,1.83
2019-02-15T22:37:12.107Z,1.58
2019-02-15T22:39:39.540Z,1.60
2019-02-15T22:42:07.187Z,1.58
2019-02-15T22:44:34.605Z,1.48
2019-02-15T22:47:01.861Z,1.39
2019-02-15T22:49:29.650Z,1.43
2019-02-15T22:51:56.881Z,1.41
2019-02-15T22:54:24.147Z,1.34
2019-02-15T22:56:55.252Z,1.25
2019-02-15T22:59:22.804Z,1.29
2019-02-15T23:01:50.723Z,1.11
2019-02-15T23:04:18.267Z,1.03
2019-02-15T23:06:46.236Z,1.26
2019-02-15T23:09:24.755Z,1.38
2019-02-15T23:11:52.797Z,1.31
2019-02-15T23:14:20.153Z,1.16
2019-02-15T23:16:47.476Z,1.12
2019-02-15T23:19:15.534Z,1.22
2019-02-15T23:21:42.778Z,1.31
2019-02-15T23:24:11.329Z,1.35
2019-02-15T23:26:38.936Z,1.21
2019-02-15T23:29:06.978Z,1.13
2019-02-15T23:31:34.676Z,1.17
2019-02-15T23:34:02.244Z,1.24
2019-02-15T23:36:30.149Z,1.07
2019-02-15T23:39:02.063Z,1.01
2019-02-15T23:41:29.831Z,1.02
2019-02-15T23:43:58.000Z,0.97
2019-02-15T23:46:25.548Z,0.88
2019-02-15T23:48:52.856Z,0.85
2019-02-15T23:51:20.850Z,0.75
2019-02-15T23:53:48.465Z,0.73
2019-02-15T23:56:15.945Z,0.69
2019-02-15T23:58:43.482Z,0.72
